createdAt,value
2023-01-20T00:00:25.561Z,387.10
2023-01-20T00:05:25.775Z,388.21
2023-01-20T00:10:25.390Z,390.23
2023-01-20T00:15:25.334Z,391.37
2023-01-20T00:20:25.269Z,392.96
2023-01-20T00:25:25.189Z,393.19
2023-01-20T00:30:25.239Z,391.82
2023-01-20T00:35:25.056Z,391.59
2023-01-20T00:40:25.008Z,392.73
2023-01-20T00:45:24.932Z,392.28
2023-01-20T00:50:24.876Z,395.04
2023-01-20T00:55:24.797Z,396.89
2023-01-20T01:00:24.760Z,395.96
2023-01-20T01:05:43.695Z,398.30
2023-01-20T01:10:36.121Z,398.30
2023-01-20T01:15:36.054Z,400.43
2023-01-20T01:20:35.960Z,399.95
2023-01-20T01:25:35.904Z,403.30
2023-01-20T01:30:35.887Z,398.77
2023-01-20T01:35:35.794Z,403.55
2023-01-20T01:40:35.712Z,404.51
2023-01-20T01:45:35.657Z,405.49
2023-01-20T01:50:35.581Z,403.06
2023-01-20T01:55:35.520Z,406.46
2023-01-20T02:00:35.480Z,405.73
2023-01-20T02:05:35.459Z,407.45
2023-01-20T02:10:35.357Z,406.22
2023-01-20T02:15:35.246Z,405.00
2023-01-20T02:20:35.195Z,405.00
2023-01-20T02:25:35.142Z,405.00
2023-01-20T02:30:35.089Z,405.00
2023-01-20T02:35:35.165Z,406.22
2023-01-20T02:40:34.923Z,401.62
2023-01-20T02:45:34.902Z,402.34
2023-01-20T02:50:34.793Z,403.06
2023-01-20T02:55:34.748Z,399.72
2023-01-20T03:00:34.667Z,399.48
2023-01-20T03:05:34.713Z,397.60
2023-01-20T03:10:34.535Z,396.20
2023-01-20T03:15:34.489Z,394.80
2023-01-20T03:20:34.418Z,394.80
2023-01-20T03:25:34.365Z,393.19
2023-01-20T03:30:34.357Z,392.73
2023-01-20T03:35:34.239Z,391.14
2023-01-20T03:40:34.150Z,391.37
2023-01-20T03:45:34.092Z,390.23
2023-01-20T03:50:34.019Z,390.23
2023-01-20T03:55:33.952Z,388.21
2023-01-20T04:00:33.894Z,389.78
2023-01-20T04:05:33.827Z,387.77
2023-01-20T04:10:33.740Z,384.23
2023-01-20T04:15:33.762Z,385.33
2023-01-20T04:20:33.625Z,386.65
2023-01-20T04:25:33.592Z,383.14
2023-01-20T04:30:33.507Z,385.11
2023-01-20T04:35:33.439Z,384.45
2023-01-20T04:40:33.379Z,384.67
2023-01-20T04:45:33.324Z,384.67
2023-01-20T04:50:33.232Z,381.84
2023-01-20T04:55:33.179Z,382.05
2023-01-20T05:00:33.111Z,383.58
2023-01-20T05:05:33.120Z,383.58
2023-01-20T05:10:32.980Z,382.49
2023-01-20T05:15:52.668Z,383.14
2023-01-20T05:20:45.028Z,383.58
2023-01-20T05:25:44.951Z,385.99
2023-01-20T05:30:44.930Z,384.89
2023-01-20T05:35:44.811Z,386.43
2023-01-20T05:40:44.761Z,386.43
2023-01-20T05:45:44.690Z,383.58
2023-01-20T05:50:44.639Z,387.99
2023-01-20T05:55:44.573Z,389.78
2023-01-20T06:00:44.520Z,389.33
2023-01-20T06:05:44.435Z,389.11
2023-01-20T06:10:44.522Z,388.66
2023-01-20T06:15:44.314Z,388.66
2023-01-20T06:20:44.259Z,386.21
2023-01-20T06:25:44.269Z,387.54
2023-01-20T06:30:44.161Z,390.46
2023-01-20T06:35:44.044Z,387.77
2023-01-20T06:40:43.996Z,388.21
2023-01-20T06:45:43.913Z,386.43
2023-01-20T06:50:43.930Z,386.88
2023-01-20T06:55:44.626Z,385.99
2023-01-20T07:00:43.771Z,385.99
2023-01-20T07:05:43.735Z,388.66
2023-01-20T07:10:43.609Z,387.32
2023-01-20T07:15:43.532Z,387.99
2023-01-20T07:20:43.463Z,386.88
2023-01-20T07:25:43.404Z,386.43
2023-01-20T07:30:43.370Z,388.21
2023-01-20T07:35:43.283Z,387.10
2023-01-20T07:40:43.243Z,386.43
2023-01-20T07:45:43.206Z,384.67
2023-01-20T07:50:43.097Z,385.11
2023-01-20T07:55:43.018Z,385.55
2023-01-20T08:00:42.970Z,382.27
2023-01-20T08:05:42.874Z,383.79
2023-01-20T08:10:42.893Z,384.67
2023-01-20T08:15:42.765Z,381.19
2023-01-20T08:20:42.698Z,381.62
2023-01-20T08:25:42.686Z,381.40
2023-01-20T08:30:42.688Z,380.11
2023-01-20T08:35:42.638Z,379.69
2023-01-20T08:40:42.449Z,375.13
2023-01-20T08:45:42.416Z,372.60
2023-01-20T08:50:42.320Z,370.52
2023-01-20T08:55:42.245Z,370.11
2023-01-20T09:00:42.203Z,368.87
2023-01-20T09:05:42.120Z,368.46
2023-01-20T09:10:42.056Z,366.83
2023-01-20T09:15:42.097Z,364.02
2023-01-20T09:20:41.947Z,363.62
2023-01-20T09:25:41.850Z,358.51
2023-01-20T09:30:41.880Z,358.12
2023-01-20T09:35:41.738Z,360.85
2023-01-20T09:40:41.735Z,360.85
2023-01-20T09:45:41.600Z,360.85
2023-01-20T09:50:41.564Z,359.68
2023-01-20T09:55:41.430Z,362.43
2023-01-20T10:00:41.393Z,361.24
2023-01-20T10:05:41.348Z,356.20
2023-01-20T10:10:41.302Z,355.82
2023-01-20T10:15:41.242Z,355.44
2023-01-20T10:20:41.149Z,357.74
2023-01-20T10:25:41.068Z,362.03
2023-01-20T10:30:41.053Z,368.87
2023-01-20T10:35:40.936Z,380.76
2023-01-20T10:40:40.996Z,384.45
2023-01-20T10:45:40.803Z,389.33
2023-01-20T10:50:40.740Z,394.57
2023-01-20T10:55:40.774Z,403.55
2023-01-20T11:00:40.641Z,404.03
2023-01-20T11:05:40.516Z,413.70
2023-01-20T11:10:40.518Z,404.51
2023-01-20T11:15:40.408Z,405.73
2023-01-20T11:20:40.375Z,405.00
2023-01-20T11:25:40.268Z,400.91
2023-01-20T11:30:40.289Z,396.20
2023-01-20T11:35:40.153Z,396.89
2023-01-20T11:40:40.116Z,400.43
2023-01-20T11:45:40.058Z,408.93
2023-01-20T11:50:39.995Z,415.99
2023-01-20T11:55:39.890Z,421.19
2023-01-20T12:00:39.829Z,424.37
2023-01-20T12:05:39.740Z,429.23
2023-01-20T12:10:39.708Z,428.14
2023-01-20T12:15:42.740Z,427.60
2023-01-20T12:20:54.470Z,426.52
2023-01-20T12:25:43.362Z,424.37
2023-01-20T12:30:43.645Z,425.17
2023-01-20T12:35:44.416Z,427.33
2023-01-20T12:40:43.124Z,428.69
2023-01-20T12:45:46.434Z,432.26
2023-01-20T12:51:03.073Z,429.51
2023-01-20T12:56:03.328Z,432.81
2023-01-20T13:00:44.493Z,435.89
2023-01-20T13:06:04.224Z,432.81
2023-01-20T13:16:52.549Z,477.91
2023-01-20T13:21:28.551Z,483.39
2023-01-20T13:26:28.530Z,479.95
2023-01-20T13:31:28.543Z,471.89
2023-01-20T13:36:28.392Z,470.24
2023-01-20T13:41:28.331Z,471.23
2023-01-20T13:46:28.245Z,466.98
2023-01-20T13:51:28.235Z,462.82
2023-01-20T13:56:28.140Z,463.45
2023-01-20T14:01:28.112Z,466.66
2023-01-20T14:06:28.028Z,462.82
2023-01-20T14:11:27.929Z,455.01
2023-01-20T14:16:28.054Z,449.25
2023-01-20T14:21:27.791Z,450.75
2023-01-20T14:26:27.762Z,447.46
2023-01-20T14:31:27.769Z,448.65
2023-01-20T14:36:27.963Z,445.69
2023-01-20T14:41:27.780Z,442.47
2023-01-20T14:46:27.581Z,441.60
2023-01-20T14:51:27.417Z,436.74
2023-01-20T14:56:27.355Z,428.14
2023-01-20T15:01:27.351Z,421.72
2023-01-20T15:06:27.302Z,414.46
2023-01-20T15:11:27.164Z,409.92
2023-01-20T15:16:27.080Z,409.18
2023-01-20T15:21:27.032Z,405.73
2023-01-20T15:26:26.987Z,405.49
2023-01-20T15:31:26.966Z,408.68
2023-01-20T15:36:26.856Z,407.69
2023-01-20T15:41:26.828Z,407.69
2023-01-20T15:46:26.714Z,408.19
2023-01-20T15:51:28.063Z,402.34
2023-01-20T15:56:26.635Z,399.48
2023-01-20T16:01:26.544Z,394.57
2023-01-20T16:06:26.488Z,391.82
2023-01-20T16:11:26.416Z,391.14
2023-01-20T16:16:29.489Z,387.54
2023-01-20T16:21:26.281Z,387.32
2023-01-20T16:26:26.194Z,391.37
2023-01-20T16:31:26.231Z,393.65
2023-01-20T16:36:26.085Z,401.14
2023-01-20T16:41:26.021Z,408.68
2023-01-20T16:46:25.936Z,405.73
2023-01-20T16:51:25.917Z,405.49
2023-01-20T16:56:25.847Z,401.38
2023-01-20T17:01:25.730Z,399.95
2023-01-20T17:06:25.700Z,396.43
2023-01-20T17:11:25.612Z,405.49
2023-01-20T17:16:25.664Z,409.43
2023-01-20T17:21:25.519Z,414.71
2023-01-20T17:26:25.415Z,411.93
2023-01-20T17:31:25.451Z,409.92
2023-01-20T17:36:25.327Z,411.17
2023-01-20T17:41:25.212Z,409.18
2023-01-20T17:46:25.200Z,407.45
2023-01-20T17:51:25.096Z,404.76
2023-01-20T17:56:25.067Z,405.98
2023-01-20T18:01:25.020Z,400.19
2023-01-20T18:06:24.918Z,396.43
2023-01-20T18:11:24.877Z,394.80
2023-01-20T18:16:24.862Z,399.24
2023-01-20T18:21:24.716Z,404.51
2023-01-20T18:26:24.696Z,407.45
2023-01-20T18:31:24.702Z,410.17
2023-01-20T18:36:24.623Z,411.17
2023-01-20T18:41:24.464Z,408.93
2023-01-20T18:46:24.451Z,410.17
2023-01-20T18:51:24.323Z,403.79
2023-01-20T18:56:24.276Z,402.58
2023-01-20T19:01:24.227Z,404.27
2023-01-20T19:06:24.143Z,411.42
2023-01-20T19:11:24.081Z,418.58
2023-01-20T19:16:24.027Z,424.90
2023-01-20T19:21:23.938Z,428.14
2023-01-20T19:26:23.893Z,433.09
2023-01-20T19:31:23.912Z,436.74
2023-01-20T19:36:23.758Z,443.05
2023-01-20T19:41:23.750Z,442.18
2023-01-20T19:46:23.705Z,453.17
2023-01-20T19:51:23.566Z,459.35
2023-01-20T19:56:23.545Z,464.41
2023-01-20T20:01:23.570Z,468.61
2023-01-20T20:06:23.383Z,473.88
2023-01-20T20:11:23.305Z,475.55
2023-01-20T20:16:23.289Z,472.22
2023-01-20T20:21:23.214Z,469.91
2023-01-20T20:26:23.137Z,467.63
2023-01-20T20:31:23.123Z,468.93
2023-01-20T20:36:23.025Z,466.02
2023-01-20T20:41:22.943Z,469.26
2023-01-20T20:46:22.964Z,467.96
2023-01-20T20:51:22.943Z,468.61
2023-01-20T20:56:22.794Z,471.56
2023-01-20T21:01:22.771Z,467.31
2023-01-20T21:06:22.650Z,462.82
2023-01-20T21:11:22.566Z,461.55
2023-01-20T21:16:22.625Z,458.72
2023-01-20T21:21:22.426Z,457.79
2023-01-20T21:26:22.393Z,462.18
2023-01-20T21:31:22.383Z,456.86
2023-01-20T21:36:22.276Z,454.70
2023-01-20T21:41:22.164Z,450.45
2023-01-20T21:46:22.165Z,449.55
2023-01-20T21:51:22.037Z,444.22
2023-01-20T21:56:22.005Z,444.22
2023-01-20T22:01:21.920Z,440.16
2023-01-20T22:06:21.887Z,432.81
2023-01-20T22:11:21.782Z,433.93
2023-01-20T22:16:21.740Z,431.71
2023-01-20T22:21:21.667Z,433.93
2023-01-20T22:26:21.604Z,431.98
2023-01-20T22:31:21.558Z,435.33
2023-01-20T22:36:21.501Z,435.05
2023-01-20T22:41:21.407Z,437.02
2023-01-20T22:46:21.354Z,439.87
2023-01-20T22:51:21.318Z,442.76
2023-01-20T22:56:21.231Z,442.18
2023-01-20T23:01:21.184Z,441.31
2023-01-20T23:06:21.096Z,442.47
2023-01-20T23:11:21.028Z,447.17
2023-01-20T23:16:20.987Z,445.69
2023-01-20T23:21:20.943Z,444.22
2023-01-20T23:26:20.844Z,447.76
2023-01-20T23:31:20.857Z,453.48
2023-01-20T23:36:20.734Z,454.70
2023-01-20T23:41:20.608Z,453.48
2023-01-20T23:46:20.596Z,450.45
2023-01-20T23:51:20.564Z,448.65
2023-01-20T23:56:20.461Z,447.17
